VSP1506 SBSL-SBTE
Flight info
| Callsign | VSP1506 |
|---|---|
| Flight time | 0h 45m |
| Altitude | 23000 |
| Route | ELIET UZ20 PAPEL |
| Aircraft | B738/M-SDE2E3FGHIRWXY/LB1 |
Departure
| Time | 2026-04-22 21:25 |
|---|---|
| Airport | Marechal Cunha Machado International Airport (SBSL) |
Arrival
| Time | 2026-04-22 22:10 |
|---|---|
| Airport | Senador Petrônio Portela Airport (SBTE) |
| Time | Latitude | Longitude | Altitude | Speed | Heading |
|---|---|---|---|---|---|
| 2026-04-22 21:07 | -2.58442 | -44.23652 | 163 ft | 0 kts | 340° |
| 2026-04-22 21:17 | -2.58452 | -44.23648 | 161 ft | 2 kts | 346° |
| 2026-04-22 21:17 | -2.58468 | -44.23645 | 161 ft | 2 kts | 355° |
| 2026-04-22 21:18 | -2.58484 | -44.23645 | 161 ft | 2 kts | 12° |
| 2026-04-22 21:18 | -2.58500 | -44.23651 | 161 ft | 2 kts | 37° |
| 2026-04-22 21:18 | -2.58511 | -44.23663 | 162 ft | 2 kts | 58° |
| 2026-04-22 21:18 | -2.58518 | -44.23676 | 162 ft | 1 kts | 68° |
| 2026-04-22 21:19 | -2.58519 | -44.23678 | 162 ft | 0 kts | 69° |
| 2026-04-22 21:20 | -2.58511 | -44.23659 | 162 ft | 6 kts | 69° |
| 2026-04-22 21:20 | -2.58487 | -44.23594 | 160 ft | 13 kts | 70° |
| 2026-04-22 21:21 | -2.58454 | -44.23503 | 158 ft | 14 kts | 70° |
| 2026-04-22 21:21 | -2.58444 | -44.23466 | 157 ft | 4 kts | 80° |
| 2026-04-22 21:21 | -2.58445 | -44.23438 | 156 ft | 4 kts | 114° |
| 2026-04-22 21:21 | -2.58465 | -44.23416 | 156 ft | 5 kts | 137° |
| 2026-04-22 21:22 | -2.58502 | -44.23398 | 157 ft | 8 kts | 175° |
| 2026-04-22 21:22 | -2.58567 | -44.23432 | 158 ft | 14 kts | 218° |
| 2026-04-22 21:22 | -2.58653 | -44.23502 | 160 ft | 18 kts | 219° |
| 2026-04-22 21:22 | -2.58768 | -44.23595 | 161 ft | 24 kts | 219° |
| 2026-04-22 21:23 | -2.58907 | -44.23705 | 163 ft | 27 kts | 218° |
| 2026-04-22 21:23 | -2.59066 | -44.23832 | 166 ft | 31 kts | 219° |
| 2026-04-22 21:23 | -2.59239 | -44.23972 | 171 ft | 33 kts | 218° |
| 2026-04-22 21:23 | -2.59425 | -44.24119 | 177 ft | 35 kts | 218° |
| 2026-04-22 21:24 | -2.59597 | -44.24258 | 182 ft | 16 kts | 219° |
| 2026-04-22 21:24 | -2.59654 | -44.24345 | 190 ft | 12 kts | 223° |
| 2026-04-22 21:24 | -2.59681 | -44.24334 | 182 ft | 5 kts | 83° |
| 2026-04-22 21:24 | -2.59640 | -44.24292 | 183 ft | 13 kts | 38° |
| 2026-04-22 21:25 | -2.59470 | -44.24155 | 179 ft | 65 kts | 39° |
| 2026-04-22 21:25 | -2.58924 | -44.23718 | 164 ft | 133 kts | 39° |
| 2026-04-22 21:25 | -2.58079 | -44.23037 | 288 ft | 176 kts | 40° |
| 2026-04-22 21:25 | -2.57116 | -44.22237 | 1027 ft | 179 kts | 39° |
| 2026-04-22 21:26 | -2.56135 | -44.21445 | 1840 ft | 187 kts | 39° |
| 2026-04-22 21:26 | -2.55037 | -44.20582 | 2264 ft | 211 kts | 39° |
| 2026-04-22 21:26 | -2.53872 | -44.19654 | 2796 ft | 220 kts | 45° |
| 2026-04-22 21:26 | -2.53092 | -44.18323 | 3218 ft | 234 kts | 79° |
| 2026-04-22 21:27 | -2.53295 | -44.16652 | 3554 ft | 255 kts | 115° |
| 2026-04-22 21:27 | -2.54417 | -44.15270 | 4357 ft | 261 kts | 143° |
| 2026-04-22 21:27 | -2.56095 | -44.14548 | 5153 ft | 267 kts | 166° |
| 2026-04-22 21:27 | -2.57949 | -44.14264 | 5942 ft | 273 kts | 172° |
| 2026-04-22 21:28 | -2.59856 | -44.14075 | 6695 ft | 278 kts | 173° |
| 2026-04-22 21:28 | -2.61791 | -44.13885 | 7451 ft | 281 kts | 172° |
| 2026-04-22 21:28 | -2.63750 | -44.13676 | 8205 ft | 285 kts | 172° |
| 2026-04-22 21:28 | -2.65739 | -44.13447 | 8953 ft | 289 kts | 172° |
| 2026-04-22 21:29 | -2.67730 | -44.13206 | 9585 ft | 293 kts | 171° |
| 2026-04-22 21:29 | -2.69768 | -44.12951 | 10106 ft | 299 kts | 171° |
| 2026-04-22 21:29 | -2.71916 | -44.12676 | 10305 ft | 322 kts | 171° |
| 2026-04-22 21:29 | -2.74203 | -44.12381 | 10611 ft | 338 kts | 171° |
| 2026-04-22 21:30 | -2.76568 | -44.12075 | 11180 ft | 345 kts | 171° |
| 2026-04-22 21:30 | -2.78963 | -44.11764 | 11852 ft | 348 kts | 171° |
| 2026-04-22 21:30 | -2.81372 | -44.11430 | 12534 ft | 351 kts | 166° |
| 2026-04-22 21:30 | -2.83612 | -44.10488 | 13171 ft | 352 kts | 143° |
| 2026-04-22 21:31 | -2.85439 | -44.08869 | 13869 ft | 353 kts | 137° |
| 2026-04-22 21:31 | -2.87427 | -44.07450 | 14475 ft | 358 kts | 147° |
| 2026-04-22 21:31 | -2.89602 | -44.06217 | 15126 ft | 361 kts | 150° |
| 2026-04-22 21:31 | -2.91842 | -44.05025 | 15776 ft | 365 kts | 150° |
| 2026-04-22 21:32 | -2.94095 | -44.03823 | 16402 ft | 368 kts | 150° |
| 2026-04-22 21:32 | -2.96355 | -44.02592 | 17037 ft | 372 kts | 149° |
| 2026-04-22 21:32 | -2.98628 | -44.01331 | 17661 ft | 375 kts | 149° |
| 2026-04-22 21:32 | -3.00915 | -44.00044 | 18261 ft | 379 kts | 149° |
| 2026-04-22 21:33 | -3.03219 | -43.98738 | 18775 ft | 382 kts | 149° |
| 2026-04-22 21:33 | -3.05540 | -43.97419 | 19314 ft | 385 kts | 149° |
| 2026-04-22 21:33 | -3.07878 | -43.96088 | 19840 ft | 388 kts | 149° |
| 2026-04-22 21:33 | -3.10237 | -43.94744 | 20361 ft | 391 kts | 149° |
| 2026-04-22 21:34 | -3.12612 | -43.93393 | 20868 ft | 394 kts | 149° |
| 2026-04-22 21:34 | -3.14973 | -43.92050 | 21366 ft | 397 kts | 149° |
| 2026-04-22 21:34 | -3.17383 | -43.90679 | 21857 ft | 400 kts | 149° |
| 2026-04-22 21:34 | -3.19816 | -43.89295 | 22399 ft | 402 kts | 149° |
| 2026-04-22 21:35 | -3.22251 | -43.87910 | 22869 ft | 404 kts | 149° |
| 2026-04-22 21:35 | -3.24715 | -43.86508 | 22879 ft | 413 kts | 149° |
| 2026-04-22 21:35 | -3.27239 | -43.85072 | 22899 ft | 423 kts | 149° |
| 2026-04-22 21:35 | -3.29825 | -43.83600 | 22906 ft | 431 kts | 149° |
| 2026-04-22 21:36 | -3.32458 | -43.82101 | 22904 ft | 440 kts | 149° |
| 2026-04-22 21:36 | -3.35137 | -43.80576 | 22899 ft | 447 kts | 149° |
| 2026-04-22 21:36 | -3.37833 | -43.79042 | 22898 ft | 453 kts | 149° |
| 2026-04-22 21:36 | -3.40590 | -43.77473 | 22897 ft | 458 kts | 149° |
| 2026-04-22 21:37 | -3.43375 | -43.75888 | 22898 ft | 462 kts | 149° |
| 2026-04-22 21:37 | -3.46183 | -43.74289 | 22894 ft | 466 kts | 149° |
| 2026-04-22 21:37 | -3.49017 | -43.72676 | 22891 ft | 470 kts | 149° |
| 2026-04-22 21:37 | -3.51872 | -43.71050 | 22891 ft | 473 kts | 149° |
| 2026-04-22 21:38 | -3.54740 | -43.69417 | 22889 ft | 475 kts | 149° |
| 2026-04-22 21:38 | -3.57629 | -43.67771 | 22889 ft | 477 kts | 149° |
| 2026-04-22 21:38 | -3.60511 | -43.66130 | 22890 ft | 477 kts | 149° |
| 2026-04-22 21:38 | -3.63399 | -43.64485 | 22892 ft | 477 kts | 149° |
| 2026-04-22 21:39 | -3.66282 | -43.62842 | 22893 ft | 477 kts | 149° |
| 2026-04-22 21:39 | -3.69167 | -43.61194 | 22894 ft | 475 kts | 149° |
| 2026-04-22 21:39 | -3.71969 | -43.59591 | 22874 ft | 453 kts | 149° |
| 2026-04-22 21:39 | -3.74642 | -43.58062 | 22872 ft | 432 kts | 149° |
| 2026-04-22 21:40 | -3.77194 | -43.56602 | 22875 ft | 413 kts | 149° |
| 2026-04-22 21:40 | -3.79607 | -43.55220 | 22873 ft | 396 kts | 149° |
| 2026-04-22 21:40 | -3.81969 | -43.53867 | 22596 ft | 388 kts | 149° |
| 2026-04-22 21:40 | -3.84287 | -43.52539 | 22251 ft | 382 kts | 149° |
| 2026-04-22 21:41 | -3.86583 | -43.51223 | 21858 ft | 378 kts | 149° |
| 2026-04-22 21:41 | -3.88855 | -43.49920 | 21429 ft | 375 kts | 149° |
| 2026-04-22 21:41 | -3.91114 | -43.48626 | 21009 ft | 373 kts | 149° |
| 2026-04-22 21:41 | -3.93359 | -43.47340 | 20592 ft | 371 kts | 148° |
| 2026-04-22 21:42 | -3.95593 | -43.46060 | 20167 ft | 369 kts | 149° |
| 2026-04-22 21:42 | -3.97814 | -43.44787 | 19738 ft | 367 kts | 148° |
| 2026-04-22 21:42 | -4.00036 | -43.43514 | 19320 ft | 366 kts | 148° |
| 2026-04-22 21:42 | -4.02242 | -43.42250 | 18885 ft | 365 kts | 148° |
| 2026-04-22 21:43 | -4.04445 | -43.40988 | 18462 ft | 363 kts | 148° |
| 2026-04-22 21:43 | -4.06614 | -43.39748 | 17977 ft | 363 kts | 148° |
| 2026-04-22 21:43 | -4.08805 | -43.38496 | 17521 ft | 361 kts | 149° |
| 2026-04-22 21:43 | -4.10986 | -43.37250 | 17091 ft | 359 kts | 149° |
| 2026-04-22 21:44 | -4.13144 | -43.36017 | 16669 ft | 356 kts | 149° |
| 2026-04-22 21:44 | -4.15289 | -43.34791 | 16249 ft | 353 kts | 148° |
| 2026-04-22 21:44 | -4.17415 | -43.33575 | 15852 ft | 351 kts | 148° |
| 2026-04-22 21:44 | -4.19533 | -43.32364 | 15446 ft | 349 kts | 148° |
| 2026-04-22 21:45 | -4.21634 | -43.31162 | 15052 ft | 347 kts | 148° |
| 2026-04-22 21:45 | -4.23728 | -43.29965 | 14642 ft | 345 kts | 148° |
| 2026-04-22 21:45 | -4.25808 | -43.28775 | 14230 ft | 344 kts | 148° |
| 2026-04-22 21:45 | -4.27881 | -43.27589 | 13816 ft | 343 kts | 148° |
| 2026-04-22 21:46 | -4.29919 | -43.26422 | 13392 ft | 341 kts | 148° |
| 2026-04-22 21:46 | -4.31979 | -43.25244 | 12968 ft | 339 kts | 148° |
| 2026-04-22 21:46 | -4.34022 | -43.24075 | 12565 ft | 336 kts | 148° |
| 2026-04-22 21:46 | -4.36045 | -43.22918 | 12167 ft | 334 kts | 148° |
| 2026-04-22 21:47 | -4.38056 | -43.21766 | 11779 ft | 332 kts | 148° |
| 2026-04-22 21:47 | -4.40056 | -43.20621 | 11388 ft | 329 kts | 148° |
| 2026-04-22 21:47 | -4.42038 | -43.19487 | 11004 ft | 327 kts | 148° |
| 2026-04-22 21:47 | -4.44013 | -43.18356 | 10620 ft | 325 kts | 149° |
| 2026-04-22 21:48 | -4.45965 | -43.17239 | 10375 ft | 318 kts | 149° |
| 2026-04-22 21:48 | -4.47836 | -43.16168 | 10206 ft | 310 kts | 148° |
| 2026-04-22 21:48 | -4.49524 | -43.14901 | 10067 ft | 298 kts | 134° |
| 2026-04-22 21:48 | -4.50961 | -43.13447 | 9951 ft | 289 kts | 133° |
| 2026-04-22 21:49 | -4.52337 | -43.12004 | 9695 ft | 285 kts | 132° |
| 2026-04-22 21:49 | -4.53701 | -43.10572 | 9394 ft | 283 kts | 132° |
| 2026-04-22 21:49 | -4.55062 | -43.09152 | 9089 ft | 281 kts | 133° |
| 2026-04-22 21:49 | -4.56418 | -43.07746 | 8788 ft | 279 kts | 133° |
| 2026-04-22 21:50 | -4.57330 | -43.06805 | 8592 ft | 278 kts | 133° |
| 2026-04-22 21:50 | -4.59112 | -43.04971 | 8203 ft | 276 kts | 133° |
| 2026-04-22 21:50 | -4.60451 | -43.03597 | 7909 ft | 275 kts | 133° |
| 2026-04-22 21:50 | -4.61782 | -43.02234 | 7619 ft | 273 kts | 133° |
| 2026-04-22 21:51 | -4.63109 | -43.00874 | 7330 ft | 272 kts | 133° |
| 2026-04-22 21:51 | -4.64429 | -42.99523 | 7043 ft | 270 kts | 133° |
| 2026-04-22 21:51 | -4.65743 | -42.98178 | 6749 ft | 269 kts | 133° |
| 2026-04-22 21:52 | -4.68337 | -42.95524 | 6178 ft | 266 kts | 133° |
| 2026-04-22 21:52 | -4.69612 | -42.94219 | 5870 ft | 259 kts | 133° |
| 2026-04-22 21:52 | -4.70876 | -42.92927 | 5595 ft | 258 kts | 133° |
| 2026-04-22 21:52 | -4.72120 | -42.91653 | 5310 ft | 253 kts | 134° |
| 2026-04-22 21:53 | -4.73332 | -42.90413 | 5040 ft | 244 kts | 134° |
| 2026-04-22 21:53 | -4.74504 | -42.89214 | 4778 ft | 237 kts | 134° |
| 2026-04-22 21:53 | -4.75643 | -42.88049 | 4518 ft | 230 kts | 134° |
| 2026-04-22 21:53 | -4.76739 | -42.86928 | 4424 ft | 219 kts | 134° |
| 2026-04-22 21:54 | -4.77835 | -42.85827 | 4146 ft | 225 kts | 139° |
| 2026-04-22 21:54 | -4.79237 | -42.85167 | 3942 ft | 223 kts | 167° |
| 2026-04-22 21:54 | -4.80761 | -42.84960 | 3849 ft | 219 kts | 173° |
| 2026-04-22 21:54 | -4.82271 | -42.84820 | 3745 ft | 217 kts | 173° |
| 2026-04-22 21:55 | -4.83758 | -42.84679 | 3655 ft | 217 kts | 173° |
| 2026-04-22 21:55 | -4.85257 | -42.84531 | 3566 ft | 215 kts | 173° |
| 2026-04-22 21:55 | -4.86710 | -42.84383 | 3492 ft | 204 kts | 172° |
| 2026-04-22 21:55 | -4.88099 | -42.84239 | 3282 ft | 197 kts | 172° |
| 2026-04-22 21:56 | -4.89437 | -42.84101 | 3106 ft | 190 kts | 172° |
| 2026-04-22 21:56 | -4.90728 | -42.83969 | 2899 ft | 182 kts | 172° |
| 2026-04-22 21:56 | -4.91970 | -42.83840 | 2673 ft | 174 kts | 172° |
| 2026-04-22 21:56 | -4.93131 | -42.83719 | 2489 ft | 161 kts | 172° |
| 2026-04-22 21:57 | -4.94189 | -42.83610 | 2305 ft | 145 kts | 172° |
| 2026-04-22 21:57 | -4.95198 | -42.83504 | 2138 ft | 148 kts | 172° |
| 2026-04-22 21:57 | -4.96214 | -42.83398 | 1924 ft | 145 kts | 172° |
| 2026-04-22 21:57 | -4.97210 | -42.83293 | 1728 ft | 143 kts | 172° |
| 2026-04-22 21:58 | -4.98197 | -42.83190 | 1537 ft | 143 kts | 172° |
| 2026-04-22 21:58 | -4.99185 | -42.83086 | 1347 ft | 143 kts | 173° |
| 2026-04-22 21:58 | -4.99841 | -42.83017 | 1244 ft | 142 kts | 172° |
| 2026-04-22 21:58 | -5.00811 | -42.82853 | 1414 ft | 148 kts | 163° |
| 2026-04-22 21:59 | -5.01793 | -42.82369 | 1818 ft | 166 kts | 141° |
| 2026-04-22 21:59 | -5.02596 | -42.81476 | 2345 ft | 181 kts | 122° |
| 2026-04-22 21:59 | -5.03095 | -42.80280 | 3048 ft | 189 kts | 105° |
| 2026-04-22 21:59 | -5.03303 | -42.79007 | 3952 ft | 184 kts | 98° |
| 2026-04-22 22:00 | -5.03468 | -42.77718 | 4669 ft | 188 kts | 99° |
| 2026-04-22 22:00 | -5.03776 | -42.76391 | 4573 ft | 197 kts | 105° |
| 2026-04-22 22:00 | -5.03914 | -42.75042 | 4242 ft | 198 kts | 78° |
| 2026-04-22 22:00 | -5.03122 | -42.73891 | 3651 ft | 215 kts | 34° |
| 2026-04-22 22:01 | -5.01707 | -42.73263 | 3245 ft | 230 kts | 24° |
| 2026-04-22 22:01 | -5.00166 | -42.72910 | 3114 ft | 233 kts | 2° |
| 2026-04-22 22:01 | -4.98535 | -42.72961 | 3092 ft | 237 kts | 358° |
| 2026-04-22 22:01 | -4.96878 | -42.73054 | 3087 ft | 238 kts | 358° |
| 2026-04-22 22:02 | -4.95229 | -42.73150 | 3096 ft | 237 kts | 358° |
| 2026-04-22 22:02 | -4.93587 | -42.73248 | 3108 ft | 236 kts | 358° |
| 2026-04-22 22:02 | -4.91951 | -42.73349 | 3097 ft | 236 kts | 356° |
| 2026-04-22 22:02 | -4.90340 | -42.73659 | 3144 ft | 235 kts | 347° |
| 2026-04-22 22:03 | -4.88754 | -42.74057 | 3263 ft | 235 kts | 347° |
| 2026-04-22 22:03 | -4.87153 | -42.74464 | 3302 ft | 239 kts | 346° |
| 2026-04-22 22:03 | -4.85535 | -42.74899 | 3302 ft | 240 kts | 346° |
| 2026-04-22 22:03 | -4.83949 | -42.75330 | 3303 ft | 239 kts | 346° |
| 2026-04-22 22:04 | -4.82353 | -42.75790 | 3305 ft | 239 kts | 342° |
| 2026-04-22 22:04 | -4.80840 | -42.76466 | 3293 ft | 237 kts | 329° |
| 2026-04-22 22:04 | -4.79735 | -42.77648 | 3153 ft | 239 kts | 293° |
| 2026-04-22 22:04 | -4.79470 | -42.79358 | 2973 ft | 262 kts | 262° |
| 2026-04-22 22:05 | -4.80089 | -42.81075 | 2737 ft | 266 kts | 233° |
| 2026-04-22 22:05 | -4.81465 | -42.82234 | 2715 ft | 255 kts | 203° |
| 2026-04-22 22:05 | -4.83129 | -42.82810 | 2624 ft | 254 kts | 194° |
| 2026-04-22 22:05 | -4.84807 | -42.83262 | 2650 ft | 245 kts | 193° |
| 2026-04-22 22:06 | -4.86409 | -42.83699 | 2640 ft | 232 kts | 194° |
| 2026-04-22 22:06 | -4.87911 | -42.84114 | 2665 ft | 215 kts | 191° |
| 2026-04-22 22:06 | -4.89341 | -42.84141 | 2676 ft | 199 kts | 171° |
| 2026-04-22 22:06 | -4.90665 | -42.83982 | 2653 ft | 184 kts | 172° |
| 2026-04-22 22:07 | -4.91872 | -42.83854 | 2616 ft | 166 kts | 172° |
| 2026-04-22 22:07 | -4.92996 | -42.83736 | 2572 ft | 160 kts | 172° |
| 2026-04-22 22:07 | -4.94084 | -42.83622 | 2336 ft | 154 kts | 172° |
| 2026-04-22 22:07 | -4.95122 | -42.83513 | 2134 ft | 148 kts | 172° |
| 2026-04-22 22:08 | -4.96128 | -42.83408 | 1994 ft | 147 kts | 172° |
| 2026-04-22 22:08 | -4.97143 | -42.83301 | 1783 ft | 146 kts | 172° |
| 2026-04-22 22:08 | -4.98138 | -42.83196 | 1576 ft | 142 kts | 172° |
| 2026-04-22 22:08 | -4.99120 | -42.83093 | 1383 ft | 141 kts | 173° |
| 2026-04-22 22:09 | -5.00106 | -42.82990 | 1210 ft | 143 kts | 173° |
| 2026-04-22 22:09 | -5.01085 | -42.82890 | 1024 ft | 144 kts | 174° |
| 2026-04-22 22:09 | -5.02084 | -42.82788 | 813 ft | 144 kts | 173° |
| 2026-04-22 22:09 | -5.03082 | -42.82678 | 621 ft | 143 kts | 173° |
| 2026-04-22 22:10 | -5.04073 | -42.82571 | 431 ft | 144 kts | 173° |
| 2026-04-22 22:10 | -5.05082 | -42.82472 | 232 ft | 146 kts | 172° |
| 2026-04-22 22:10 | -5.05991 | -42.82374 | 214 ft | 101 kts | 174° |
| 2026-04-22 22:10 | -5.06345 | -42.82335 | 222 ft | 18 kts | 154° |
| 2026-04-22 22:11 | -5.06369 | -42.82277 | 220 ft | 3 kts | 89° |
| 2026-04-22 22:11 | -5.06367 | -42.82252 | 220 ft | 3 kts | 86° |
| 2026-04-22 22:11 | -5.06367 | -42.82246 | 220 ft | 1 kts | 85° |
| 2026-04-22 22:11 | -5.06366 | -42.82237 | 220 ft | 2 kts | 85° |
| 2026-04-22 22:12 | -5.06365 | -42.82225 | 219 ft | 2 kts | 86° |
| 2026-04-22 22:12 | -5.06374 | -42.82215 | 220 ft | 2 kts | 144° |
| 2026-04-22 22:12 | -5.06389 | -42.82210 | 220 ft | 2 kts | 167° |
| 2026-04-22 22:12 | -5.06407 | -42.82207 | 220 ft | 3 kts | 171° |
| 2026-04-22 22:13 | -5.06429 | -42.82203 | 220 ft | 4 kts | 171° |
| 2026-04-22 22:13 | -5.06455 | -42.82201 | 221 ft | 4 kts | 177° |
| 2026-04-22 22:13 | -5.06483 | -42.82200 | 221 ft | 4 kts | 177° |
| 2026-04-22 22:13 | -5.06511 | -42.82197 | 221 ft | 3 kts | 174° |
| 2026-04-22 22:14 | -5.06521 | -42.82184 | 222 ft | 3 kts | 95° |
| 2026-04-22 22:14 | -5.06516 | -42.82159 | 221 ft | 4 kts | 84° |
| 2026-04-22 22:14 | -5.06515 | -42.82146 | 221 ft | 0 kts | 85° |